sensor_id;sensor_type;location;lat;lon;timestamp;P1;durP1;ratioP1;P2;durP2;ratioP2
42876;SDS011;42341;40.498;72.818;2022-12-18T00:00:02;66.13;;;34.38;;
42876;SDS011;42341;40.498;72.818;2022-12-18T00:02:30;66.53;;;33.88;;
42876;SDS011;42341;40.498;72.818;2022-12-18T00:04:56;81.45;;;40.78;;
42876;SDS011;42341;40.498;72.818;2022-12-18T00:07:22;89.18;;;44.30;;
42876;SDS011;42341;40.498;72.818;2022-12-18T00:09:48;78.28;;;40.95;;
42876;SDS011;42341;40.498;72.818;2022-12-18T00:12:13;74.65;;;36.65;;
42876;SDS011;42341;40.498;72.818;2022-12-18T00:14:39;67.72;;;34.10;;
42876;SDS011;42341;40.498;72.818;2022-12-18T00:17:05;87.05;;;41.58;;
42876;SDS011;42341;40.498;72.818;2022-12-18T00:19:31;83.80;;;39.35;;
42876;SDS011;42341;40.498;72.818;2022-12-18T00:21:57;86.72;;;41.97;;
42876;SDS011;42341;40.498;72.818;2022-12-18T00:24:23;92.25;;;44.67;;
42876;SDS011;42341;40.498;72.818;2022-12-18T00:26:49;98.53;;;48.65;;
42876;SDS011;42341;40.498;72.818;2022-12-18T00:29:15;86.53;;;44.28;;
42876;SDS011;42341;40.498;72.818;2022-12-18T00:31:41;90.30;;;44.22;;
42876;SDS011;42341;40.498;72.818;2022-12-18T00:34:09;107.00;;;49.17;;
42876;SDS011;42341;40.498;72.818;2022-12-18T00:36:37;123.00;;;60.47;;
42876;SDS011;42341;40.498;72.818;2022-12-18T00:39:04;95.38;;;47.83;;
42876;SDS011;42341;40.498;72.818;2022-12-18T00:41:30;80.72;;;39.83;;
42876;SDS011;42341;40.498;72.818;2022-12-18T00:44:17;100.57;;;47.15;;
42876;SDS011;42341;40.498;72.818;2022-12-18T00:46:43;106.15;;;50.28;;
42876;SDS011;42341;40.498;72.818;2022-12-18T00:49:13;105.32;;;54.25;;
42876;SDS011;42341;40.498;72.818;2022-12-18T00:51:41;95.40;;;47.90;;
42876;SDS011;42341;40.498;72.818;2022-12-18T00:54:07;89.65;;;44.80;;
42876;SDS011;42341;40.498;72.818;2022-12-18T00:56:34;87.25;;;43.17;;
42876;SDS011;42341;40.498;72.818;2022-12-18T00:59:01;84.38;;;39.40;;
42876;SDS011;42341;40.498;72.818;2022-12-18T01:01:27;81.07;;;38.40;;
42876;SDS011;42341;40.498;72.818;2022-12-18T01:03:53;79.50;;;39.30;;
42876;SDS011;42341;40.498;72.818;2022-12-18T01:06:22;77.28;;;38.63;;
42876;SDS011;42341;40.498;72.818;2022-12-18T01:08:48;74.10;;;37.80;;
42876;SDS011;42341;40.498;72.818;2022-12-18T01:11:15;72.05;;;35.28;;
42876;SDS011;42341;40.498;72.818;2022-12-18T01:13:43;66.25;;;31.23;;
42876;SDS011;42341;40.498;72.818;2022-12-18T01:16:11;65.68;;;31.50;;
42876;SDS011;42341;40.498;72.818;2022-12-18T01:18:38;69.13;;;35.10;;
42876;SDS011;42341;40.498;72.818;2022-12-18T01:21:07;90.28;;;47.47;;
42876;SDS011;42341;40.498;72.818;2022-12-18T01:26:04;130.07;;;61.85;;
42876;SDS011;42341;40.498;72.818;2022-12-18T01:28:35;145.30;;;66.07;;
42876;SDS011;42341;40.498;72.818;2022-12-18T01:31:11;135.60;;;64.05;;
42876;SDS011;42341;40.498;72.818;2022-12-18T01:33:38;117.72;;;53.78;;
42876;SDS011;42341;40.498;72.818;2022-12-18T01:36:04;81.07;;;37.58;;
42876;SDS011;42341;40.498;72.818;2022-12-18T01:38:30;60.58;;;26.90;;
42876;SDS011;42341;40.498;72.818;2022-12-18T01:40:57;48.33;;;23.33;;
42876;SDS011;42341;40.498;72.818;2022-12-18T01:43:40;62.05;;;30.98;;
42876;SDS011;42341;40.498;72.818;2022-12-18T01:46:07;93.05;;;40.15;;
42876;SDS011;42341;40.498;72.818;2022-12-18T01:48:33;53.78;;;25.08;;
42876;SDS011;42341;40.498;72.818;2022-12-18T01:50:58;51.42;;;24.58;;
42876;SDS011;42341;40.498;72.818;2022-12-18T01:53:26;58.92;;;30.02;;
42876;SDS011;42341;40.498;72.818;2022-12-18T01:55:55;71.70;;;35.83;;
42876;SDS011;42341;40.498;72.818;2022-12-18T01:58:24;69.25;;;35.88;;
42876;SDS011;42341;40.498;72.818;2022-12-18T02:00:57;75.57;;;36.53;;
42876;SDS011;42341;40.498;72.818;2022-12-18T02:03:23;73.75;;;34.80;;
42876;SDS011;42341;40.498;72.818;2022-12-18T02:08:37;72.63;;;36.20;;
42876;SDS011;42341;40.498;72.818;2022-12-18T02:24:18;99.53;;;45.50;;
42876;SDS011;42341;40.498;72.818;2022-12-18T02:27:07;59.08;;;30.35;;
42876;SDS011;42341;40.498;72.818;2022-12-18T02:32:34;52.58;;;26.73;;
42876;SDS011;42341;40.498;72.818;2022-12-18T02:35:03;67.43;;;28.88;;
42876;SDS011;42341;40.498;72.818;2022-12-18T02:37:31;55.00;;;26.65;;
42876;SDS011;42341;40.498;72.818;2022-12-18T02:39:58;103.57;;;40.95;;
42876;SDS011;42341;40.498;72.818;2022-12-18T02:42:25;79.15;;;35.95;;
42876;SDS011;42341;40.498;72.818;2022-12-18T02:44:54;70.03;;;36.13;;
42876;SDS011;42341;40.498;72.818;2022-12-18T02:47:21;220.68;;;96.78;;
42876;SDS011;42341;40.498;72.818;2022-12-18T02:50:10;203.10;;;92.47;;
42876;SDS011;42341;40.498;72.818;2022-12-18T03:03:55;288.65;;;136.23;;
42876;SDS011;42341;40.498;72.818;2022-12-18T03:06:39;270.30;;;137.00;;
42876;SDS011;42341;40.498;72.818;2022-12-18T03:09:09;278.45;;;135.13;;
42876;SDS011;42341;40.498;72.818;2022-12-18T03:11:41;174.07;;;84.03;;
42876;SDS011;42341;40.498;72.818;2022-12-18T03:14:29;175.68;;;83.93;;
42876;SDS011;42341;40.498;72.818;2022-12-18T03:16:59;124.50;;;61.15;;
42876;SDS011;42341;40.498;72.818;2022-12-18T03:19:28;100.93;;;49.40;;
42876;SDS011;42341;40.498;72.818;2022-12-18T03:21:57;96.22;;;47.10;;
42876;SDS011;42341;40.498;72.818;2022-12-18T03:24:26;108.72;;;53.33;;
42876;SDS011;42341;40.498;72.818;2022-12-18T03:26:55;142.13;;;67.93;;
42876;SDS011;42341;40.498;72.818;2022-12-18T03:32:01;132.75;;;64.45;;
42876;SDS011;42341;40.498;72.818;2022-12-18T03:34:33;145.57;;;72.32;;
42876;SDS011;42341;40.498;72.818;2022-12-18T03:37:02;102.68;;;46.83;;
42876;SDS011;42341;40.498;72.818;2022-12-18T03:39:28;89.30;;;43.97;;
42876;SDS011;42341;40.498;72.818;2022-12-18T03:42:00;80.50;;;41.38;;
42876;SDS011;42341;40.498;72.818;2022-12-18T03:47:29;98.30;;;45.83;;
42876;SDS011;42341;40.498;72.818;2022-12-18T03:50:02;126.55;;;57.30;;
42876;SDS011;42341;40.498;72.818;2022-12-18T03:52:47;86.45;;;39.58;;
42876;SDS011;42341;40.498;72.818;2022-12-18T03:55:25;91.65;;;40.63;;
42876;SDS011;42341;40.498;72.818;2022-12-18T03:57:56;59.17;;;29.70;;
42876;SDS011;42341;40.498;72.818;2022-12-18T04:00:23;87.25;;;37.30;;
42876;SDS011;42341;40.498;72.818;2022-12-18T04:02:50;156.35;;;65.28;;
42876;SDS011;42341;40.498;72.818;2022-12-18T04:05:20;134.50;;;60.88;;
42876;SDS011;42341;40.498;72.818;2022-12-18T04:07:48;220.85;;;98.10;;
42876;SDS011;42341;40.498;72.818;2022-12-18T04:10:15;257.55;;;106.43;;
42876;SDS011;42341;40.498;72.818;2022-12-18T04:12:42;142.15;;;61.88;;
42876;SDS011;42341;40.498;72.818;2022-12-18T04:15:08;103.75;;;42.58;;
42876;SDS011;42341;40.498;72.818;2022-12-18T04:17:35;84.65;;;35.42;;
42876;SDS011;42341;40.498;72.818;2022-12-18T04:20:01;59.22;;;25.60;;
42876;SDS011;42341;40.498;72.818;2022-12-18T04:22:27;50.63;;;22.98;;
42876;SDS011;42341;40.498;72.818;2022-12-18T04:24:53;46.67;;;18.50;;
42876;SDS011;42341;40.498;72.818;2022-12-18T04:27:20;37.47;;;16.35;;
42876;SDS011;42341;40.498;72.818;2022-12-18T04:29:46;51.97;;;19.52;;
42876;SDS011;42341;40.498;72.818;2022-12-18T04:32:12;50.33;;;22.25;;
42876;SDS011;42341;40.498;72.818;2022-12-18T04:34:38;49.55;;;22.10;;
42876;SDS011;42341;40.498;72.818;2022-12-18T04:37:04;56.60;;;27.45;;
42876;SDS011;42341;40.498;72.818;2022-12-18T04:39:29;73.00;;;30.27;;
42876;SDS011;42341;40.498;72.818;2022-12-18T04:41:55;87.13;;;35.22;;
42876;SDS011;42341;40.498;72.818;2022-12-18T04:44:21;79.22;;;34.80;;
42876;SDS011;42341;40.498;72.818;2022-12-18T04:46:47;71.50;;;35.00;;
42876;SDS011;42341;40.498;72.818;2022-12-18T04:49:13;77.05;;;35.72;;
42876;SDS011;42341;40.498;72.818;2022-12-18T04:51:39;80.47;;;36.88;;
42876;SDS011;42341;40.498;72.818;2022-12-18T04:54:05;87.20;;;40.45;;
42876;SDS011;42341;40.498;72.818;2022-12-18T04:56:31;89.93;;;42.55;;
42876;SDS011;42341;40.498;72.818;2022-12-18T04:58:57;96.50;;;49.85;;
42876;SDS011;42341;40.498;72.818;2022-12-18T05:01:23;86.25;;;43.10;;
42876;SDS011;42341;40.498;72.818;2022-12-18T05:03:50;97.88;;;47.17;;
42876;SDS011;42341;40.498;72.818;2022-12-18T05:06:17;107.78;;;51.55;;
42876;SDS011;42341;40.498;72.818;2022-12-18T05:08:43;123.35;;;64.13;;
42876;SDS011;42341;40.498;72.818;2022-12-18T05:11:10;134.63;;;68.97;;
42876;SDS011;42341;40.498;72.818;2022-12-18T05:13:40;153.65;;;73.82;;
42876;SDS011;42341;40.498;72.818;2022-12-18T05:16:07;138.98;;;71.00;;
42876;SDS011;42341;40.498;72.818;2022-12-18T05:18:34;162.95;;;85.45;;
42876;SDS011;42341;40.498;72.818;2022-12-18T05:21:00;184.88;;;101.13;;
42876;SDS011;42341;40.498;72.818;2022-12-18T05:23:26;172.68;;;98.50;;
42876;SDS011;42341;40.498;72.818;2022-12-18T05:25:57;178.35;;;98.35;;
42876;SDS011;42341;40.498;72.818;2022-12-18T05:28:25;172.68;;;99.60;;
42876;SDS011;42341;40.498;72.818;2022-12-18T05:30:53;185.90;;;98.15;;
42876;SDS011;42341;40.498;72.818;2022-12-18T05:33:22;162.95;;;93.95;;
42876;SDS011;42341;40.498;72.818;2022-12-18T05:35:56;206.35;;;120.28;;
42876;SDS011;42341;40.498;72.818;2022-12-18T05:38:24;241.13;;;138.73;;
42876;SDS011;42341;40.498;72.818;2022-12-18T05:40:51;254.85;;;151.98;;
42876;SDS011;42341;40.498;72.818;2022-12-18T05:43:18;264.10;;;158.77;;
42876;SDS011;42341;40.498;72.818;2022-12-18T05:45:44;266.05;;;158.75;;
42876;SDS011;42341;40.498;72.818;2022-12-18T05:48:10;248.15;;;147.48;;
42876;SDS011;42341;40.498;72.818;2022-12-18T05:50:37;218.55;;;129.45;;
42876;SDS011;42341;40.498;72.818;2022-12-18T05:53:06;253.18;;;137.30;;
42876;SDS011;42341;40.498;72.818;2022-12-18T05:55:33;212.25;;;119.60;;
42876;SDS011;42341;40.498;72.818;2022-12-18T05:58:01;190.57;;;101.93;;
42876;SDS011;42341;40.498;72.818;2022-12-18T06:00:31;157.35;;;91.35;;
42876;SDS011;42341;40.498;72.818;2022-12-18T06:03:03;122.10;;;70.25;;
42876;SDS011;42341;40.498;72.818;2022-12-18T06:05:38;119.57;;;62.65;;
42876;SDS011;42341;40.498;72.818;2022-12-18T06:08:06;109.78;;;54.35;;
42876;SDS011;42341;40.498;72.818;2022-12-18T06:10:32;89.90;;;46.50;;
42876;SDS011;42341;40.498;72.818;2022-12-18T06:12:58;98.70;;;49.63;;
42876;SDS011;42341;40.498;72.818;2022-12-18T06:15:25;108.90;;;54.20;;
42876;SDS011;42341;40.498;72.818;2022-12-18T06:17:51;94.80;;;50.92;;
42876;SDS011;42341;40.498;72.818;2022-12-18T06:20:17;99.18;;;50.63;;
42876;SDS011;42341;40.498;72.818;2022-12-18T06:22:43;103.43;;;51.72;;
42876;SDS011;42341;40.498;72.818;2022-12-18T06:25:09;114.50;;;59.38;;
42876;SDS011;42341;40.498;72.818;2022-12-18T06:27:35;116.60;;;61.90;;
42876;SDS011;42341;40.498;72.818;2022-12-18T06:30:01;120.15;;;65.53;;
42876;SDS011;42341;40.498;72.818;2022-12-18T06:32:27;124.68;;;64.65;;
42876;SDS011;42341;40.498;72.818;2022-12-18T06:34:53;137.30;;;72.72;;
42876;SDS011;42341;40.498;72.818;2022-12-18T06:37:20;135.60;;;73.82;;
42876;SDS011;42341;40.498;72.818;2022-12-18T06:39:49;132.45;;;69.88;;
42876;SDS011;42341;40.498;72.818;2022-12-18T06:42:15;127.82;;;68.13;;
42876;SDS011;42341;40.498;72.818;2022-12-18T06:44:44;139.02;;;71.82;;
42876;SDS011;42341;40.498;72.818;2022-12-18T06:47:10;138.07;;;72.65;;
42876;SDS011;42341;40.498;72.818;2022-12-18T06:49:36;152.98;;;75.40;;
42876;SDS011;42341;40.498;72.818;2022-12-18T06:52:02;145.90;;;79.05;;
42876;SDS011;42341;40.498;72.818;2022-12-18T06:54:28;143.20;;;77.80;;
42876;SDS011;42341;40.498;72.818;2022-12-18T06:56:54;134.90;;;75.03;;
42876;SDS011;42341;40.498;72.818;2022-12-18T06:59:20;132.32;;;71.97;;
42876;SDS011;42341;40.498;72.818;2022-12-18T07:01:46;133.23;;;73.22;;
42876;SDS011;42341;40.498;72.818;2022-12-18T07:04:12;127.53;;;74.38;;
42876;SDS011;42341;40.498;72.818;2022-12-18T07:06:37;143.77;;;79.38;;
42876;SDS011;42341;40.498;72.818;2022-12-18T07:09:03;139.52;;;80.45;;
42876;SDS011;42341;40.498;72.818;2022-12-18T07:11:29;139.60;;;75.20;;
42876;SDS011;42341;40.498;72.818;2022-12-18T07:13:58;135.05;;;76.35;;
42876;SDS011;42341;40.498;72.818;2022-12-18T07:16:24;138.63;;;82.93;;
42876;SDS011;42341;40.498;72.818;2022-12-18T07:18:51;137.68;;;81.20;;
42876;SDS011;42341;40.498;72.818;2022-12-18T07:21:18;128.20;;;75.07;;
42876;SDS011;42341;40.498;72.818;2022-12-18T07:23:45;148.60;;;83.85;;
42876;SDS011;42341;40.498;72.818;2022-12-18T07:26:13;155.50;;;84.63;;
42876;SDS011;42341;40.498;72.818;2022-12-18T07:28:40;137.93;;;81.10;;
42876;SDS011;42341;40.498;72.818;2022-12-18T07:31:16;135.43;;;80.40;;
42876;SDS011;42341;40.498;72.818;2022-12-18T07:33:45;133.65;;;78.15;;
42876;SDS011;42341;40.498;72.818;2022-12-18T07:36:11;139.32;;;79.72;;
42876;SDS011;42341;40.498;72.818;2022-12-18T07:38:38;146.32;;;80.20;;
42876;SDS011;42341;40.498;72.818;2022-12-18T07:41:05;150.75;;;81.97;;
42876;SDS011;42341;40.498;72.818;2022-12-18T07:43:33;127.38;;;76.85;;
42876;SDS011;42341;40.498;72.818;2022-12-18T07:46:00;138.65;;;78.05;;
42876;SDS011;42341;40.498;72.818;2022-12-18T07:48:26;143.73;;;81.65;;
42876;SDS011;42341;40.498;72.818;2022-12-18T07:50:53;152.30;;;85.30;;
42876;SDS011;42341;40.498;72.818;2022-12-18T07:53:22;127.90;;;77.97;;
42876;SDS011;42341;40.498;72.818;2022-12-18T07:55:48;144.85;;;77.28;;
42876;SDS011;42341;40.498;72.818;2022-12-18T07:58:14;138.45;;;74.85;;
42876;SDS011;42341;40.498;72.818;2022-12-18T08:00:42;145.32;;;79.28;;
42876;SDS011;42341;40.498;72.818;2022-12-18T08:03:08;150.88;;;81.38;;
42876;SDS011;42341;40.498;72.818;2022-12-18T08:05:33;136.55;;;76.13;;
42876;SDS011;42341;40.498;72.818;2022-12-18T08:07:59;133.05;;;74.97;;
42876;SDS011;42341;40.498;72.818;2022-12-18T08:10:25;129.15;;;69.55;;
42876;SDS011;42341;40.498;72.818;2022-12-18T08:12:51;129.98;;;72.57;;
42876;SDS011;42341;40.498;72.818;2022-12-18T08:15:17;133.05;;;69.95;;
42876;SDS011;42341;40.498;72.818;2022-12-18T08:17:43;128.85;;;70.60;;
42876;SDS011;42341;40.498;72.818;2022-12-18T08:20:09;125.57;;;66.13;;
42876;SDS011;42341;40.498;72.818;2022-12-18T08:22:37;119.68;;;65.47;;
42876;SDS011;42341;40.498;72.818;2022-12-18T08:25:04;102.78;;;59.25;;
42876;SDS011;42341;40.498;72.818;2022-12-18T08:27:30;106.45;;;60.88;;
42876;SDS011;42341;40.498;72.818;2022-12-18T08:29:56;112.57;;;60.33;;
42876;SDS011;42341;40.498;72.818;2022-12-18T08:32:23;105.15;;;57.97;;
42876;SDS011;42341;40.498;72.818;2022-12-18T08:34:53;117.75;;;64.22;;
42876;SDS011;42341;40.498;72.818;2022-12-18T08:37:19;109.82;;;60.83;;
42876;SDS011;42341;40.498;72.818;2022-12-18T08:39:45;114.05;;;60.13;;
42876;SDS011;42341;40.498;72.818;2022-12-18T08:42:11;105.90;;;58.60;;
42876;SDS011;42341;40.498;72.818;2022-12-18T08:44:55;103.20;;;57.60;;
42876;SDS011;42341;40.498;72.818;2022-12-18T08:47:21;112.82;;;63.85;;
42876;SDS011;42341;40.498;72.818;2022-12-18T08:49:47;123.07;;;61.03;;
42876;SDS011;42341;40.498;72.818;2022-12-18T08:52:13;112.65;;;60.60;;
42876;SDS011;42341;40.498;72.818;2022-12-18T08:54:39;111.35;;;60.50;;
42876;SDS011;42341;40.498;72.818;2022-12-18T08:57:05;117.97;;;63.33;;
42876;SDS011;42341;40.498;72.818;2022-12-18T08:59:31;126.07;;;64.43;;
42876;SDS011;42341;40.498;72.818;2022-12-18T09:01:57;113.43;;;61.92;;
42876;SDS011;42341;40.498;72.818;2022-12-18T09:04:23;103.97;;;58.58;;
42876;SDS011;42341;40.498;72.818;2022-12-18T09:06:49;134.60;;;74.22;;
42876;SDS011;42341;40.498;72.818;2022-12-18T09:09:15;141.27;;;81.93;;
42876;SDS011;42341;40.498;72.818;2022-12-18T09:11:41;149.73;;;82.82;;
42876;SDS011;42341;40.498;72.818;2022-12-18T09:14:08;165.02;;;89.60;;
42876;SDS011;42341;40.498;72.818;2022-12-18T09:16:34;166.85;;;85.63;;
42876;SDS011;42341;40.498;72.818;2022-12-18T09:19:01;183.55;;;91.18;;
42876;SDS011;42341;40.498;72.818;2022-12-18T09:21:29;164.00;;;82.90;;
42876;SDS011;42341;40.498;72.818;2022-12-18T09:23:56;180.90;;;92.57;;
42876;SDS011;42341;40.498;72.818;2022-12-18T09:26:23;166.85;;;89.47;;
42876;SDS011;42341;40.498;72.818;2022-12-18T09:28:50;177.63;;;92.28;;
42876;SDS011;42341;40.498;72.818;2022-12-18T09:31:16;167.63;;;90.18;;
42876;SDS011;42341;40.498;72.818;2022-12-18T09:33:44;169.10;;;89.45;;
42876;SDS011;42341;40.498;72.818;2022-12-18T09:36:14;172.77;;;90.82;;
42876;SDS011;42341;40.498;72.818;2022-12-18T09:38:41;177.07;;;98.40;;
42876;SDS011;42341;40.498;72.818;2022-12-18T09:41:53;190.88;;;102.22;;
42876;SDS011;42341;40.498;72.818;2022-12-18T09:44:44;210.77;;;103.97;;
42876;SDS011;42341;40.498;72.818;2022-12-18T09:47:19;221.50;;;111.53;;
42876;SDS011;42341;40.498;72.818;2022-12-18T09:49:55;191.30;;;104.82;;
42876;SDS011;42341;40.498;72.818;2022-12-18T09:52:28;212.52;;;110.85;;
42876;SDS011;42341;40.498;72.818;2022-12-18T09:55:00;221.10;;;125.38;;
42876;SDS011;42341;40.498;72.818;2022-12-18T09:57:29;231.48;;;120.57;;
42876;SDS011;42341;40.498;72.818;2022-12-18T10:02:29;224.05;;;124.72;;
42876;SDS011;42341;40.498;72.818;2022-12-18T10:07:39;235.52;;;123.35;;
42876;SDS011;42341;40.498;72.818;2022-12-18T10:10:14;239.88;;;129.75;;
42876;SDS011;42341;40.498;72.818;2022-12-18T10:16:00;225.80;;;123.78;;
42876;SDS011;42341;40.498;72.818;2022-12-18T10:18:41;227.07;;;122.78;;
42876;SDS011;42341;40.498;72.818;2022-12-18T10:21:33;255.43;;;135.43;;
42876;SDS011;42341;40.498;72.818;2022-12-18T10:27:15;244.18;;;136.95;;
42876;SDS011;42341;40.498;72.818;2022-12-18T10:29:48;257.02;;;138.48;;
42876;SDS011;42341;40.498;72.818;2022-12-18T10:32:15;277.17;;;156.90;;
42876;SDS011;42341;40.498;72.818;2022-12-18T10:34:55;293.35;;;166.20;;
42876;SDS011;42341;40.498;72.818;2022-12-18T10:37:23;279.90;;;157.27;;
42876;SDS011;42341;40.498;72.818;2022-12-18T10:40:08;262.30;;;151.47;;
42876;SDS011;42341;40.498;72.818;2022-12-18T10:42:40;254.27;;;139.20;;
42876;SDS011;42341;40.498;72.818;2022-12-18T10:45:15;270.48;;;148.13;;
42876;SDS011;42341;40.498;72.818;2022-12-18T10:47:45;277.88;;;155.50;;
42876;SDS011;42341;40.498;72.818;2022-12-18T10:50:32;319.90;;;177.00;;
42876;SDS011;42341;40.498;72.818;2022-12-18T10:53:00;306.95;;;165.07;;
42876;SDS011;42341;40.498;72.818;2022-12-18T10:55:47;287.88;;;164.40;;
42876;SDS011;42341;40.498;72.818;2022-12-18T11:01:03;286.02;;;158.73;;
42876;SDS011;42341;40.498;72.818;2022-12-18T11:03:35;293.95;;;155.85;;
42876;SDS011;42341;40.498;72.818;2022-12-18T11:06:10;289.77;;;166.23;;
42876;SDS011;42341;40.498;72.818;2022-12-18T11:08:37;313.00;;;166.55;;
42876;SDS011;42341;40.498;72.818;2022-12-18T11:11:04;320.52;;;171.15;;
42876;SDS011;42341;40.498;72.818;2022-12-18T11:13:41;320.05;;;181.88;;
42876;SDS011;42341;40.498;72.818;2022-12-18T11:16:26;338.63;;;190.07;;
42876;SDS011;42341;40.498;72.818;2022-12-18T11:19:06;331.75;;;194.98;;
42876;SDS011;42341;40.498;72.818;2022-12-18T11:21:39;338.17;;;196.68;;
42876;SDS011;42341;40.498;72.818;2022-12-18T11:24:15;333.25;;;194.23;;
42876;SDS011;42341;40.498;72.818;2022-12-18T11:26:46;324.65;;;191.70;;
42876;SDS011;42341;40.498;72.818;2022-12-18T11:29:17;331.30;;;192.07;;
42876;SDS011;42341;40.498;72.818;2022-12-18T11:31:47;323.92;;;185.13;;
42876;SDS011;42341;40.498;72.818;2022-12-18T11:34:29;320.35;;;181.02;;
42876;SDS011;42341;40.498;72.818;2022-12-18T11:36:57;325.38;;;183.95;;
42876;SDS011;42341;40.498;72.818;2022-12-18T11:41:59;335.58;;;196.18;;
42876;SDS011;42341;40.498;72.818;2022-12-18T11:49:56;352.90;;;199.32;;
42876;SDS011;42341;40.498;72.818;2022-12-18T11:55:00;345.95;;;193.80;;
42876;SDS011;42341;40.498;72.818;2022-12-18T12:00:10;352.20;;;204.02;;
42876;SDS011;42341;40.498;72.818;2022-12-18T12:02:52;370.25;;;216.55;;
42876;SDS011;42341;40.498;72.818;2022-12-18T12:08:09;420.63;;;239.95;;
42876;SDS011;42341;40.498;72.818;2022-12-18T12:16:49;431.38;;;247.30;;
42876;SDS011;42341;40.498;72.818;2022-12-18T12:38:01;477.48;;;278.45;;
42876;SDS011;42341;40.498;72.818;2022-12-18T12:40:38;493.02;;;285.10;;
42876;SDS011;42341;40.498;72.818;2022-12-18T12:43:22;537.72;;;306.80;;
42876;SDS011;42341;40.498;72.818;2022-12-18T12:48:40;538.63;;;307.92;;
42876;SDS011;42341;40.498;72.818;2022-12-18T12:51:25;555.13;;;318.13;;
42876;SDS011;42341;40.498;72.818;2022-12-18T12:53:57;571.85;;;338.15;;
42876;SDS011;42341;40.498;72.818;2022-12-18T12:56:27;560.65;;;325.00;;
42876;SDS011;42341;40.498;72.818;2022-12-18T13:04:39;691.80;;;427.50;;
42876;SDS011;42341;40.498;72.818;2022-12-18T13:07:26;797.65;;;486.95;;
42876;SDS011;42341;40.498;72.818;2022-12-18T13:12:58;709.67;;;435.48;;
42876;SDS011;42341;40.498;72.818;2022-12-18T13:15:39;719.13;;;436.08;;
42876;SDS011;42341;40.498;72.818;2022-12-18T13:25:57;789.22;;;465.95;;
42876;SDS011;42341;40.498;72.818;2022-12-18T13:31:09;708.05;;;418.85;;
42876;SDS011;42341;40.498;72.818;2022-12-18T13:33:45;636.55;;;378.63;;
42876;SDS011;42341;40.498;72.818;2022-12-18T13:36:16;583.42;;;340.02;;
42876;SDS011;42341;40.498;72.818;2022-12-18T13:44:36;511.02;;;295.48;;
42876;SDS011;42341;40.498;72.818;2022-12-18T13:50:20;563.70;;;322.13;;
42876;SDS011;42341;40.498;72.818;2022-12-18T13:52:50;594.05;;;345.35;;
42876;SDS011;42341;40.498;72.818;2022-12-18T13:55:18;647.90;;;374.40;;
42876;SDS011;42341;40.498;72.818;2022-12-18T13:57:46;607.33;;;356.02;;
42876;SDS011;42341;40.498;72.818;2022-12-18T14:00:28;594.00;;;348.45;;
42876;SDS011;42341;40.498;72.818;2022-12-18T14:02:55;579.25;;;340.23;;
42876;SDS011;42341;40.498;72.818;2022-12-18T14:05:30;596.45;;;347.85;;
42876;SDS011;42341;40.498;72.818;2022-12-18T14:08:03;598.67;;;357.05;;
42876;SDS011;42341;40.498;72.818;2022-12-18T14:10:31;581.92;;;347.63;;
42876;SDS011;42341;40.498;72.818;2022-12-18T14:12:58;592.08;;;342.52;;
42876;SDS011;42341;40.498;72.818;2022-12-18T14:15:31;599.40;;;354.35;;
42876;SDS011;42341;40.498;72.818;2022-12-18T14:18:08;603.17;;;361.33;;
42876;SDS011;42341;40.498;72.818;2022-12-18T14:20:41;635.42;;;388.08;;
42876;SDS011;42341;40.498;72.818;2022-12-18T14:26:02;654.42;;;392.38;;
42876;SDS011;42341;40.498;72.818;2022-12-18T14:28:44;639.30;;;386.48;;
42876;SDS011;42341;40.498;72.818;2022-12-18T14:31:20;564.90;;;328.80;;
42876;SDS011;42341;40.498;72.818;2022-12-18T14:33:48;518.80;;;296.75;;
42876;SDS011;42341;40.498;72.818;2022-12-18T14:36:16;417.65;;;239.23;;
42876;SDS011;42341;40.498;72.818;2022-12-18T14:38:43;446.63;;;252.60;;
42876;SDS011;42341;40.498;72.818;2022-12-18T14:41:15;458.42;;;265.75;;
42876;SDS011;42341;40.498;72.818;2022-12-18T14:43:43;468.63;;;271.00;;
42876;SDS011;42341;40.498;72.818;2022-12-18T14:48:59;474.20;;;268.67;;
42876;SDS011;42341;40.498;72.818;2022-12-18T14:51:29;582.43;;;323.77;;
42876;SDS011;42341;40.498;72.818;2022-12-18T14:53:58;574.38;;;308.98;;
42876;SDS011;42341;40.498;72.818;2022-12-18T14:59:04;629.13;;;351.45;;
42876;SDS011;42341;40.498;72.818;2022-12-18T15:01:59;674.95;;;371.52;;
42876;SDS011;42341;40.498;72.818;2022-12-18T15:04:39;631.88;;;353.58;;
42876;SDS011;42341;40.498;72.818;2022-12-18T15:09:35;611.85;;;342.17;;
42876;SDS011;42341;40.498;72.818;2022-12-18T15:12:02;603.17;;;351.08;;
42876;SDS011;42341;40.498;72.818;2022-12-18T15:14:30;626.10;;;363.35;;
42876;SDS011;42341;40.498;72.818;2022-12-18T15:17:04;610.35;;;344.25;;
42876;SDS011;42341;40.498;72.818;2022-12-18T15:19:42;659.80;;;375.40;;
42876;SDS011;42341;40.498;72.818;2022-12-18T15:24:55;687.80;;;383.65;;
42876;SDS011;42341;40.498;72.818;2022-12-18T15:30:01;593.38;;;341.23;;
42876;SDS011;42341;40.498;72.818;2022-12-18T15:32:41;590.13;;;336.45;;
42876;SDS011;42341;40.498;72.818;2022-12-18T15:37:36;635.88;;;365.45;;
42876;SDS011;42341;40.498;72.818;2022-12-18T15:40:03;574.03;;;321.52;;
42876;SDS011;42341;40.498;72.818;2022-12-18T15:42:29;517.22;;;287.90;;
42876;SDS011;42341;40.498;72.818;2022-12-18T15:45:14;489.95;;;270.17;;
42876;SDS011;42341;40.498;72.818;2022-12-18T15:47:40;542.05;;;296.88;;
42876;SDS011;42341;40.498;72.818;2022-12-18T15:50:09;546.38;;;309.58;;
42876;SDS011;42341;40.498;72.818;2022-12-18T15:52:39;519.75;;;286.17;;
42876;SDS011;42341;40.498;72.818;2022-12-18T15:55:15;558.97;;;303.17;;
42876;SDS011;42341;40.498;72.818;2022-12-18T15:58:01;457.55;;;245.88;;
42876;SDS011;42341;40.498;72.818;2022-12-18T16:00:27;443.73;;;238.82;;
42876;SDS011;42341;40.498;72.818;2022-12-18T16:02:53;479.08;;;263.02;;
42876;SDS011;42341;40.498;72.818;2022-12-18T16:05:19;380.05;;;215.32;;
42876;SDS011;42341;40.498;72.818;2022-12-18T16:07:46;330.30;;;183.57;;
42876;SDS011;42341;40.498;72.818;2022-12-18T16:10:13;300.42;;;156.00;;
42876;SDS011;42341;40.498;72.818;2022-12-18T16:12:39;266.25;;;133.77;;
42876;SDS011;42341;40.498;72.818;2022-12-18T16:15:06;280.77;;;140.88;;
42876;SDS011;42341;40.498;72.818;2022-12-18T16:17:32;271.65;;;140.82;;
42876;SDS011;42341;40.498;72.818;2022-12-18T16:19:58;267.80;;;135.10;;
42876;SDS011;42341;40.498;72.818;2022-12-18T16:22:25;252.20;;;121.43;;
42876;SDS011;42341;40.498;72.818;2022-12-18T16:24:54;210.20;;;104.20;;
42876;SDS011;42341;40.498;72.818;2022-12-18T16:27:21;191.98;;;90.35;;
42876;SDS011;42341;40.498;72.818;2022-12-18T16:29:48;172.98;;;84.28;;